createdAt,value
2023-05-07T00:00:16.769Z,26.85
2023-05-07T00:01:20.093Z,22.45
2023-05-07T00:02:22.034Z,20.52
2023-05-07T00:03:23.863Z,27.60
2023-05-07T00:04:26.028Z,22.67
2023-05-07T00:05:27.749Z,29.55
2023-05-07T00:06:30.202Z,24.88
2023-05-07T00:07:31.978Z,23.27
2023-05-07T00:08:33.576Z,24.23
2023-05-07T00:09:35.305Z,23.50
2023-05-07T00:10:37.231Z,21.77
2023-05-07T00:11:38.980Z,21.70
2023-05-07T00:12:42.045Z,24.38
2023-05-07T00:13:43.695Z,22.40
2023-05-07T00:14:45.269Z,22.55
2023-05-07T00:15:46.939Z,23.20
2023-05-07T00:16:48.571Z,23.15
2023-05-07T00:17:50.344Z,22.98
2023-05-07T00:18:53.771Z,24.33
2023-05-07T00:19:55.349Z,26.42
2023-05-07T00:20:57.235Z,22.88
2023-05-07T00:21:59.156Z,22.53
2023-05-07T00:23:00.714Z,23.98
2023-05-07T00:24:02.390Z,21.77
2023-05-07T00:25:04.415Z,23.33
2023-05-07T00:26:06.104Z,23.00
2023-05-07T00:27:07.876Z,24.60
2023-05-07T00:28:09.458Z,26.23
2023-05-07T00:29:11.186Z,23.23
2023-05-07T00:30:13.221Z,22.73
2023-05-07T00:31:14.932Z,21.58
2023-05-07T00:32:16.676Z,23.92
2023-05-07T00:33:18.284Z,22.25
2023-05-07T00:34:20.093Z,24.27
2023-05-07T00:35:21.784Z,22.25
2023-05-07T00:36:23.420Z,25.37
2023-05-07T00:37:25.009Z,27.08
2023-05-07T00:38:26.589Z,26.02
2023-05-07T00:39:28.192Z,26.35
2023-05-07T00:40:29.793Z,27.20
2023-05-07T00:41:34.251Z,26.15
2023-05-07T00:42:35.803Z,31.20
2023-05-07T00:43:37.377Z,26.65
2023-05-07T00:44:38.955Z,32.08
2023-05-07T00:45:40.913Z,24.23
2023-05-07T00:46:42.646Z,25.17
2023-05-07T00:47:44.565Z,25.02
2023-05-07T00:48:46.452Z,26.35
2023-05-07T00:49:48.096Z,27.52
2023-05-07T00:50:49.811Z,29.30
2023-05-07T00:51:51.726Z,28.10
2023-05-07T00:52:53.754Z,22.88
2023-05-07T00:53:55.476Z,27.30
2023-05-07T00:54:57.179Z,24.60
2023-05-07T00:55:58.844Z,27.00
2023-05-07T00:57:01.240Z,25.73
2023-05-07T00:58:02.893Z,24.30
2023-05-07T00:59:04.859Z,23.42
2023-05-07T01:00:08.773Z,23.67
2023-05-07T01:01:10.672Z,29.15
2023-05-07T01:02:12.605Z,33.08
2023-05-07T01:03:14.233Z,29.40
2023-05-07T01:04:16.415Z,36.63
2023-05-07T01:05:20.221Z,31.52
2023-05-07T01:06:23.794Z,24.45
2023-05-07T01:07:25.832Z,30.15
2023-05-07T01:08:30.378Z,28.45
2023-05-07T01:09:32.448Z,32.40
2023-05-07T01:10:34.379Z,24.58
2023-05-07T01:11:36.185Z,31.17
2023-05-07T01:12:39.859Z,31.50
2023-05-07T01:13:42.532Z,28.00
2023-05-07T01:14:44.152Z,28.25
2023-05-07T01:15:46.243Z,26.50
2023-05-07T01:16:49.184Z,29.48
2023-05-07T01:17:50.946Z,28.27
2023-05-07T01:18:52.715Z,28.67
2023-05-07T01:19:54.448Z,27.17
2023-05-07T01:20:59.236Z,32.47
2023-05-07T01:22:05.201Z,29.45
2023-05-07T01:23:08.051Z,26.73
2023-05-07T01:24:10.185Z,27.88
2023-05-07T01:25:11.944Z,28.52
2023-05-07T01:26:13.852Z,34.03
2023-05-07T01:27:15.455Z,29.10
2023-05-07T01:28:17.506Z,30.15
2023-05-07T01:29:19.068Z,29.33
2023-05-07T01:30:22.422Z,28.30
2023-05-07T01:31:25.382Z,32.03
2023-05-07T01:32:51.966Z,29.73
2023-05-07T01:33:54.784Z,27.65
2023-05-07T01:34:58.327Z,27.92
2023-05-07T01:36:03.146Z,29.73
2023-05-07T01:37:04.833Z,24.10
2023-05-07T01:38:07.784Z,24.45
2023-05-07T01:39:10.625Z,23.33
2023-05-07T01:40:12.806Z,27.23
2023-05-07T01:41:14.794Z,25.88
2023-05-07T01:42:16.449Z,29.30
2023-05-07T01:43:18.550Z,25.25
2023-05-07T01:44:20.833Z,29.52
2023-05-07T01:45:22.704Z,27.15
2023-05-07T01:46:25.589Z,27.48
2023-05-07T01:47:27.835Z,27.48
2023-05-07T01:48:29.941Z,21.23
2023-05-07T01:49:31.599Z,39.15
2023-05-07T01:50:34.499Z,24.10
2023-05-07T01:51:37.079Z,28.23
2023-05-07T01:52:39.740Z,26.70
2023-05-07T01:53:41.677Z,29.48
2023-05-07T01:54:43.599Z,25.33
2023-05-07T01:55:46.186Z,25.40
2023-05-07T01:56:49.864Z,33.25
2023-05-07T01:57:51.479Z,23.73
2023-05-07T01:58:53.334Z,27.85
2023-05-07T01:59:54.889Z,30.92
2023-05-07T02:00:56.438Z,25.83
2023-05-07T02:01:58.003Z,28.38
2023-05-07T02:02:59.936Z,25.27
2023-05-07T02:04:01.688Z,24.52
2023-05-07T02:05:03.398Z,29.55
2023-05-07T02:06:05.133Z,27.85
2023-05-07T02:07:06.767Z,26.90
2023-05-07T02:08:08.461Z,27.58
2023-05-07T02:09:10.036Z,24.80
2023-05-07T02:10:11.833Z,24.88
2023-05-07T02:11:13.692Z,24.35
2023-05-07T02:12:15.327Z,24.60
2023-05-07T02:13:17.087Z,28.52
2023-05-07T02:14:18.845Z,26.00
2023-05-07T02:15:20.393Z,31.77
2023-05-07T02:16:22.832Z,24.40
2023-05-07T02:17:24.476Z,29.70
2023-05-07T02:18:26.448Z,25.23
2023-05-07T02:19:28.014Z,26.35
2023-05-07T02:20:29.676Z,29.00
2023-05-07T02:21:31.384Z,29.35
2023-05-07T02:22:32.968Z,25.17
2023-05-07T02:23:34.605Z,28.20
2023-05-07T02:24:36.388Z,23.45
2023-05-07T02:25:37.958Z,22.90
2023-05-07T02:26:40.477Z,26.00
2023-05-07T02:27:42.039Z,25.20
2023-05-07T02:28:43.616Z,25.23
2023-05-07T02:29:45.336Z,25.70
2023-05-07T02:30:46.870Z,30.88
2023-05-07T02:31:51.723Z,22.60
2023-05-07T02:32:53.469Z,23.75
2023-05-07T02:33:55.118Z,26.25
2023-05-07T02:34:56.741Z,22.85
2023-05-07T02:36:05.616Z,26.10
2023-05-07T02:37:07.167Z,28.90
2023-05-07T02:38:11.494Z,27.52
2023-05-07T02:39:16.501Z,23.33
2023-05-07T02:40:18.122Z,24.77
2023-05-07T02:41:19.772Z,26.92
2023-05-07T02:42:21.341Z,25.30
2023-05-07T02:43:22.875Z,27.40
2023-05-07T02:44:24.493Z,22.95
2023-05-07T02:45:26.488Z,23.65
2023-05-07T02:46:28.101Z,25.38
2023-05-07T02:47:29.744Z,23.67
2023-05-07T02:48:31.528Z,24.92
2023-05-07T02:49:33.086Z,28.98
2023-05-07T02:50:34.614Z,23.90
2023-05-07T02:51:36.175Z,22.80
2023-05-07T02:52:37.763Z,24.77
2023-05-07T02:53:39.389Z,22.85
2023-05-07T02:54:40.960Z,23.73
2023-05-07T02:55:42.637Z,26.20
2023-05-07T02:56:44.279Z,26.98
2023-05-07T02:57:45.816Z,25.15
2023-05-07T02:58:47.362Z,21.48
2023-05-07T02:59:48.956Z,23.75
2023-05-07T03:00:50.661Z,24.65
2023-05-07T03:01:52.270Z,22.48
2023-05-07T03:02:53.852Z,22.63
2023-05-07T03:03:55.580Z,23.98
2023-05-07T03:04:57.206Z,26.30
2023-05-07T03:05:58.789Z,19.30
2023-05-07T03:07:00.493Z,20.17
2023-05-07T03:08:02.105Z,24.15
2023-05-07T03:09:03.931Z,20.35
2023-05-07T03:10:06.220Z,22.90
2023-05-07T03:11:07.768Z,22.70
2023-05-07T03:12:09.366Z,24.40
2023-05-07T03:13:11.040Z,23.38
2023-05-07T03:14:12.657Z,23.48
2023-05-07T03:15:14.342Z,31.92
2023-05-07T03:16:16.543Z,26.58
2023-05-07T03:17:18.099Z,25.42
2023-05-07T03:18:19.787Z,22.30
2023-05-07T03:19:21.372Z,21.58
2023-05-07T03:20:23.158Z,29.42
2023-05-07T03:21:24.861Z,24.23
2023-05-07T03:22:26.580Z,22.90
2023-05-07T03:23:28.181Z,24.52
2023-05-07T03:24:29.762Z,24.25
2023-05-07T03:25:31.665Z,22.70
2023-05-07T03:26:33.308Z,23.52
2023-05-07T03:27:34.919Z,25.73
2023-05-07T03:28:36.548Z,20.63
2023-05-07T03:29:38.118Z,22.38
2023-05-07T03:30:39.824Z,25.65
2023-05-07T03:31:41.424Z,25.15
2023-05-07T03:32:43.150Z,21.77
2023-05-07T03:33:52.922Z,23.98
2023-05-07T03:34:54.516Z,24.73
2023-05-07T03:35:56.228Z,25.50
2023-05-07T03:36:57.788Z,22.50
2023-05-07T03:37:59.360Z,24.52
2023-05-07T03:39:00.948Z,25.60
2023-05-07T03:40:03.184Z,22.10
2023-05-07T03:41:04.848Z,23.52
2023-05-07T03:42:06.458Z,24.27
2023-05-07T03:43:08.115Z,26.40
2023-05-07T03:44:09.672Z,25.85
2023-05-07T03:45:11.420Z,23.35
2023-05-07T03:46:13.045Z,24.40
2023-05-07T03:47:14.644Z,22.40
2023-05-07T03:48:16.180Z,26.13
2023-05-07T03:49:17.831Z,23.73
2023-05-07T03:50:20.402Z,21.85
2023-05-07T03:51:22.013Z,19.58
2023-05-07T03:52:26.815Z,18.88
2023-05-07T03:53:28.387Z,24.10
2023-05-07T03:54:30.749Z,21.55
2023-05-07T03:55:32.268Z,25.83
2023-05-07T03:56:33.968Z,23.75
2023-05-07T03:57:35.685Z,25.98
2023-05-07T03:58:37.244Z,21.95
2023-05-07T03:59:38.788Z,25.80
2023-05-07T04:00:41.504Z,30.00
2023-05-07T04:01:43.186Z,21.73
2023-05-07T04:02:44.969Z,21.35
2023-05-07T04:03:46.746Z,27.10
2023-05-07T04:04:50.586Z,22.52
2023-05-07T04:05:52.181Z,25.13
2023-05-07T04:06:54.063Z,23.52
2023-05-07T04:07:55.597Z,23.75
2023-05-07T04:08:57.431Z,22.50
2023-05-07T04:09:59.016Z,23.27
2023-05-07T04:11:01.190Z,23.95
2023-05-07T04:12:03.331Z,24.02
2023-05-07T04:13:05.023Z,20.27
2023-05-07T04:14:07.220Z,22.20
2023-05-07T04:15:09.148Z,23.27
2023-05-07T04:16:10.877Z,25.20
2023-05-07T04:17:12.621Z,22.67
2023-05-07T04:18:14.190Z,24.45
2023-05-07T04:19:15.822Z,22.00
2023-05-07T04:20:18.659Z,28.60
2023-05-07T04:21:21.884Z,21.17
2023-05-07T04:22:23.670Z,19.08
2023-05-07T04:23:25.284Z,22.38
2023-05-07T04:24:26.874Z,21.58
2023-05-07T04:25:28.544Z,21.27
2023-05-07T04:26:30.378Z,20.08
2023-05-07T04:27:31.972Z,19.20
2023-05-07T04:28:33.540Z,19.65
2023-05-07T04:29:35.561Z,16.08
2023-05-07T04:30:37.107Z,21.15
2023-05-07T04:31:38.724Z,19.73
2023-05-07T04:32:40.372Z,19.60
2023-05-07T04:33:42.043Z,19.23
2023-05-07T04:34:43.762Z,18.25
2023-05-07T04:35:45.417Z,18.73
2023-05-07T04:36:47.207Z,20.15
2023-05-07T04:37:48.987Z,15.00
2023-05-07T04:38:50.562Z,17.27
2023-05-07T04:39:52.126Z,21.50
2023-05-07T04:40:53.934Z,18.58
2023-05-07T04:41:55.564Z,18.60
2023-05-07T04:42:57.239Z,20.48
2023-05-07T04:43:59.883Z,19.77
2023-05-07T04:45:03.060Z,20.08
2023-05-07T04:46:04.710Z,19.38
2023-05-07T04:47:06.503Z,20.25
2023-05-07T04:48:09.658Z,18.65
2023-05-07T04:49:11.788Z,18.90
2023-05-07T04:50:13.606Z,20.15
2023-05-07T04:51:15.423Z,19.40
2023-05-07T04:52:17.740Z,17.70
2023-05-07T04:53:19.546Z,20.33
2023-05-07T04:54:21.146Z,18.83
2023-05-07T04:55:22.752Z,18.40
2023-05-07T04:56:24.386Z,27.85
2023-05-07T04:57:26.004Z,18.58
2023-05-07T04:58:28.387Z,19.17
2023-05-07T04:59:29.954Z,19.95
2023-05-07T05:00:31.783Z,21.35
2023-05-07T05:01:33.480Z,18.75
2023-05-07T05:02:35.395Z,19.98
2023-05-07T05:03:37.148Z,18.50
2023-05-07T05:04:38.864Z,18.70
2023-05-07T05:05:40.578Z,15.57
2023-05-07T05:06:42.204Z,21.02
2023-05-07T05:07:43.945Z,19.00
2023-05-07T05:08:45.612Z,17.65
2023-05-07T05:09:47.212Z,15.45
2023-05-07T05:10:50.688Z,19.10
2023-05-07T05:11:52.460Z,15.88
2023-05-07T05:12:54.176Z,17.52
2023-05-07T05:13:55.817Z,18.42
2023-05-07T05:14:57.437Z,23.10
2023-05-07T05:15:59.341Z,23.42
2023-05-07T05:17:01.021Z,21.15
2023-05-07T05:18:02.944Z,21.80
2023-05-07T05:19:04.624Z,17.20
2023-05-07T05:20:06.950Z,19.60
2023-05-07T05:21:09.038Z,17.05
2023-05-07T05:22:10.597Z,17.70
2023-05-07T05:23:12.245Z,19.10
2023-05-07T05:24:14.072Z,20.30
2023-05-07T05:25:16.109Z,18.73
2023-05-07T05:26:17.687Z,18.08
2023-05-07T05:27:19.284Z,18.42
2023-05-07T05:28:20.954Z,18.88
2023-05-07T05:29:22.598Z,21.45
2023-05-07T05:30:24.284Z,18.48
2023-05-07T05:31:25.952Z,17.80
2023-05-07T05:32:27.644Z,20.10
2023-05-07T05:33:29.221Z,20.60
2023-05-07T05:34:30.988Z,18.80
2023-05-07T05:35:32.769Z,17.92
2023-05-07T05:36:34.402Z,17.90
2023-05-07T05:37:36.014Z,15.88
2023-05-07T05:38:37.741Z,18.65
2023-05-07T05:39:39.540Z,18.90
2023-05-07T05:40:41.160Z,20.35
2023-05-07T05:41:42.785Z,16.60
2023-05-07T05:42:44.444Z,17.73
2023-05-07T05:43:46.010Z,21.80
2023-05-07T05:44:47.597Z,19.45
2023-05-07T05:45:49.235Z,19.13
2023-05-07T05:46:51.007Z,19.33
2023-05-07T05:47:52.791Z,16.67
2023-05-07T05:48:54.404Z,18.83
2023-05-07T05:49:56.041Z,19.95
2023-05-07T05:50:57.600Z,19.33
2023-05-07T05:51:59.173Z,16.65
2023-05-07T05:53:00.699Z,17.52
2023-05-07T05:54:02.273Z,17.05
2023-05-07T05:55:04.113Z,19.80
2023-05-07T05:56:06.194Z,19.00
2023-05-07T05:57:08.015Z,18.67
2023-05-07T05:58:10.343Z,15.77
2023-05-07T05:59:12.029Z,18.40
2023-05-07T06:00:14.413Z,23.08
2023-05-07T06:01:16.251Z,18.48
2023-05-07T06:02:17.962Z,17.27
2023-05-07T06:03:19.606Z,14.05
2023-05-07T06:04:21.265Z,19.38
2023-05-07T06:05:23.047Z,17.85
2023-05-07T06:06:24.999Z,17.55
2023-05-07T06:07:26.634Z,17.23
2023-05-07T06:08:31.282Z,18.40
2023-05-07T06:09:32.828Z,17.65
2023-05-07T06:10:34.514Z,17.35
2023-05-07T06:11:36.121Z,14.55
2023-05-07T06:12:37.789Z,14.52
2023-05-07T06:13:39.443Z,16.67
2023-05-07T06:14:41.860Z,17.02
2023-05-07T06:15:43.484Z,20.50
2023-05-07T06:16:45.599Z,15.73
2023-05-07T06:17:47.245Z,16.80
2023-05-07T06:18:48.885Z,16.40
2023-05-07T06:19:50.504Z,15.63
2023-05-07T06:20:53.151Z,17.13
2023-05-07T06:21:55.107Z,17.23
2023-05-07T06:22:56.677Z,18.10
2023-05-07T06:23:58.320Z,15.52
2023-05-07T06:24:59.978Z,18.00
2023-05-07T06:26:01.598Z,15.30
2023-05-07T06:27:03.182Z,13.38
2023-05-07T06:28:05.164Z,15.18
2023-05-07T06:29:07.572Z,15.63
2023-05-07T06:30:09.960Z,17.60
2023-05-07T06:31:21.546Z,14.43
2023-05-07T06:32:23.406Z,13.80
2023-05-07T06:33:25.201Z,16.88
2023-05-07T06:34:26.803Z,13.88
2023-05-07T06:35:28.477Z,14.52
2023-05-07T06:36:30.569Z,13.82
2023-05-07T06:37:32.278Z,14.95
2023-05-07T06:38:33.859Z,13.50
2023-05-07T06:39:35.866Z,14.40
2023-05-07T06:40:37.624Z,13.57
2023-05-07T06:41:40.077Z,15.23
2023-05-07T06:42:41.707Z,14.07
2023-05-07T06:43:43.233Z,10.88
2023-05-07T06:44:44.805Z,14.95
2023-05-07T06:45:46.378Z,10.93
2023-05-07T06:46:48.233Z,11.57
2023-05-07T06:47:50.041Z,17.60
2023-05-07T06:48:51.741Z,11.40
2023-05-07T06:49:53.450Z,12.25
2023-05-07T06:50:56.708Z,11.48
2023-05-07T06:51:58.525Z,10.75
2023-05-07T06:53:00.295Z,12.18
2023-05-07T06:54:01.874Z,10.07
2023-05-07T06:55:03.698Z,12.25
2023-05-07T06:56:05.811Z,9.00
2023-05-07T06:57:08.092Z,12.77
2023-05-07T06:58:09.756Z,11.18
2023-05-07T06:59:11.383Z,11.60
2023-05-07T07:00:14.189Z,11.88
2023-05-07T07:01:16.184Z,14.43
2023-05-07T07:02:18.544Z,11.43
2023-05-07T07:03:20.295Z,9.05
2023-05-07T07:04:24.036Z,11.35
2023-05-07T07:05:25.683Z,9.82
2023-05-07T07:06:27.900Z,9.13
2023-05-07T07:07:29.553Z,11.18
2023-05-07T07:08:31.267Z,10.13
2023-05-07T07:09:32.845Z,9.57
2023-05-07T07:10:34.564Z,10.43
2023-05-07T07:11:36.278Z,9.95
2023-05-07T07:12:37.926Z,12.40
2023-05-07T07:13:41.007Z,10.45
2023-05-07T07:14:42.672Z,6.50
2023-05-07T07:15:44.647Z,8.93
2023-05-07T07:16:47.750Z,9.27
2023-05-07T07:17:50.000Z,8.00
2023-05-07T07:18:52.171Z,11.48
2023-05-07T07:19:53.814Z,10.57
2023-05-07T07:20:55.638Z,9.82
2023-05-07T07:21:57.201Z,10.48
2023-05-07T07:22:58.988Z,9.80
2023-05-07T07:24:00.569Z,10.45
2023-05-07T07:25:02.233Z,9.13
2023-05-07T07:26:03.810Z,9.77
2023-05-07T07:27:05.888Z,11.23
2023-05-07T07:28:07.908Z,12.57
2023-05-07T07:29:09.518Z,10.55
2023-05-07T07:30:11.481Z,13.07
2023-05-07T07:31:14.073Z,10.43
2023-05-07T07:32:15.852Z,9.98
2023-05-07T07:33:17.642Z,9.13
2023-05-07T07:34:19.265Z,10.10
2023-05-07T07:35:20.886Z,11.85
2023-05-07T07:36:23.771Z,11.45
2023-05-07T07:37:29.066Z,11.63
2023-05-07T07:38:30.720Z,12.07
2023-05-07T07:39:33.137Z,7.82
2023-05-07T07:40:37.410Z,11.40
2023-05-07T07:41:38.987Z,9.55
2023-05-07T07:42:40.551Z,11.50
2023-05-07T07:43:42.188Z,12.32
2023-05-07T07:44:43.812Z,12.43
2023-05-07T07:45:46.823Z,11.70
2023-05-07T07:46:48.469Z,10.48
2023-05-07T07:47:50.417Z,16.48
2023-05-07T07:48:52.039Z,12.05
2023-05-07T07:49:53.688Z,11.40
2023-05-07T07:50:55.338Z,9.75
2023-05-07T07:51:59.840Z,9.15
2023-05-07T07:53:01.667Z,9.52
2023-05-07T07:54:03.904Z,9.93
2023-05-07T07:55:06.278Z,16.52
2023-05-07T07:56:07.991Z,12.60
2023-05-07T07:57:10.117Z,11.23
2023-05-07T07:58:11.743Z,11.13
2023-05-07T07:59:14.829Z,11.57
2023-05-07T08:00:17.466Z,11.35
2023-05-07T08:01:19.025Z,11.35
2023-05-07T08:02:20.763Z,10.82
2023-05-07T08:03:22.893Z,9.55
2023-05-07T08:04:24.647Z,10.00
2023-05-07T08:05:26.323Z,10.70
2023-05-07T08:06:27.934Z,9.30
2023-05-07T08:07:29.553Z,11.60
2023-05-07T08:08:31.177Z,12.30
2023-05-07T08:09:32.828Z,8.60
2023-05-07T08:10:35.789Z,9.88
2023-05-07T08:11:37.574Z,11.68
2023-05-07T08:12:39.210Z,9.40
2023-05-07T08:13:40.927Z,9.25
2023-05-07T08:14:42.586Z,9.70
2023-05-07T08:15:44.207Z,9.02
2023-05-07T08:16:45.852Z,12.77
2023-05-07T08:17:47.661Z,7.18
2023-05-07T08:18:49.458Z,10.27
2023-05-07T08:19:51.097Z,8.50
2023-05-07T08:20:52.742Z,12.20
2023-05-07T08:21:54.343Z,9.50
2023-05-07T08:22:55.983Z,9.27
2023-05-07T08:23:57.640Z,9.30
2023-05-07T08:24:59.269Z,9.43
2023-05-07T08:26:01.197Z,10.23
2023-05-07T08:27:02.832Z,8.60
2023-05-07T08:28:04.534Z,9.32
2023-05-07T08:29:06.162Z,10.15
2023-05-07T08:30:08.697Z,8.85
2023-05-07T08:31:10.637Z,13.10
2023-05-07T08:32:12.284Z,9.27
2023-05-07T08:33:13.974Z,8.65
2023-05-07T08:34:15.644Z,9.35
2023-05-07T08:35:17.326Z,16.63
2023-05-07T08:36:20.265Z,7.47
2023-05-07T08:37:21.978Z,9.07
2023-05-07T08:38:23.762Z,14.05
2023-05-07T08:39:25.372Z,9.88
2023-05-07T08:40:27.807Z,9.60
2023-05-07T08:41:29.799Z,8.43
2023-05-07T08:42:36.229Z,11.90
2023-05-07T08:43:41.609Z,11.82
2023-05-07T08:44:47.870Z,7.75
2023-05-07T08:45:54.275Z,11.32
2023-05-07T08:46:57.383Z,10.30
2023-05-07T08:48:06.300Z,9.55
2023-05-07T08:49:08.667Z,11.07
2023-05-07T08:50:10.847Z,8.70
2023-05-07T08:51:17.758Z,9.52
2023-05-07T08:52:20.996Z,10.10
2023-05-07T08:53:22.780Z,12.55
2023-05-07T08:54:25.852Z,12.82
2023-05-07T08:55:29.437Z,9.40
2023-05-07T08:56:31.120Z,11.13
2023-05-07T08:57:32.738Z,11.65
2023-05-07T08:58:34.377Z,11.15
2023-05-07T08:59:36.739Z,9.82
2023-05-07T09:00:39.736Z,13.20
2023-05-07T09:01:41.636Z,10.90
2023-05-07T09:02:43.378Z,11.82
2023-05-07T09:03:46.876Z,10.80
2023-05-07T09:04:48.577Z,11.32
2023-05-07T09:05:50.124Z,11.35
2023-05-07T09:06:52.638Z,11.35
2023-05-07T09:07:58.306Z,9.73
2023-05-07T09:09:02.130Z,11.20
2023-05-07T09:10:07.584Z,10.70
2023-05-07T09:11:09.316Z,12.38
2023-05-07T09:12:10.958Z,11.93
2023-05-07T09:13:15.322Z,11.82
2023-05-07T09:14:17.004Z,11.43
2023-05-07T09:15:19.538Z,12.73
2023-05-07T09:16:22.874Z,12.77
2023-05-07T09:17:24.617Z,10.75
2023-05-07T09:18:26.672Z,9.98
2023-05-07T09:19:28.711Z,11.95
2023-05-07T09:20:32.042Z,11.20
2023-05-07T09:21:33.681Z,11.70
2023-05-07T09:22:38.431Z,11.45
2023-05-07T09:23:40.427Z,13.88
2023-05-07T09:24:48.059Z,11.68
2023-05-07T09:25:49.647Z,10.52
2023-05-07T09:26:51.218Z,11.55
2023-05-07T09:27:52.853Z,13.15
2023-05-07T09:28:54.476Z,12.00
2023-05-07T09:29:56.375Z,12.38
2023-05-07T09:30:58.120Z,13.80
2023-05-07T09:31:59.787Z,12.57
2023-05-07T09:33:04.832Z,13.60
2023-05-07T09:34:06.587Z,15.57
2023-05-07T09:35:17.068Z,12.35
2023-05-07T09:36:19.145Z,13.48
2023-05-07T09:37:21.048Z,14.88
2023-05-07T09:38:22.828Z,14.20
2023-05-07T09:39:25.020Z,12.23
2023-05-07T09:40:28.807Z,14.88
2023-05-07T09:41:33.177Z,14.35
2023-05-07T09:42:34.781Z,15.40
2023-05-07T09:43:37.950Z,14.95
2023-05-07T09:44:39.918Z,15.23
2023-05-07T09:45:42.261Z,14.40
2023-05-07T09:46:45.493Z,13.30
2023-05-07T09:47:49.405Z,16.35
2023-05-07T09:48:53.680Z,14.82
2023-05-07T09:49:58.882Z,14.88
2023-05-07T09:51:03.534Z,15.20
2023-05-07T09:52:07.490Z,15.88
2023-05-07T09:53:11.468Z,16.52
2023-05-07T09:54:13.373Z,15.35
2023-05-07T09:55:16.261Z,16.90
2023-05-07T09:56:19.387Z,14.40
2023-05-07T09:57:21.690Z,15.15
2023-05-07T09:58:24.656Z,13.98
2023-05-07T09:59:29.956Z,18.52
2023-05-07T10:00:33.328Z,15.38
2023-05-07T10:01:37.540Z,15.68
2023-05-07T10:02:47.325Z,15.80
2023-05-07T10:03:51.359Z,14.98
2023-05-07T10:04:53.803Z,16.70
2023-05-07T10:05:55.909Z,17.77
2023-05-07T10:06:58.305Z,14.38
2023-05-07T10:08:02.119Z,18.00
2023-05-07T10:09:06.591Z,15.15
2023-05-07T10:10:10.081Z,16.38
2023-05-07T10:11:12.426Z,15.90
2023-05-07T10:12:14.322Z,17.10
2023-05-07T10:13:16.252Z,17.52
2023-05-07T10:14:18.532Z,17.85
2023-05-07T10:15:20.665Z,17.00
2023-05-07T10:16:22.591Z,15.18
2023-05-07T10:17:25.014Z,15.70
2023-05-07T10:18:30.806Z,14.23
2023-05-07T10:19:34.034Z,16.65
2023-05-07T10:20:37.692Z,15.82
2023-05-07T10:21:40.818Z,20.00
2023-05-07T10:22:46.232Z,16.98
2023-05-07T10:23:54.328Z,16.23
2023-05-07T10:25:00.485Z,18.63
2023-05-07T10:26:06.567Z,16.02
2023-05-07T10:27:15.369Z,16.85
2023-05-07T10:28:18.679Z,18.35
2023-05-07T10:29:26.201Z,16.30
2023-05-07T10:30:47.270Z,15.85
2023-05-07T10:32:17.399Z,22.52
2023-05-07T10:33:23.017Z,16.50
2023-05-07T10:34:30.248Z,20.08
2023-05-07T10:35:37.028Z,16.67
2023-05-07T10:36:40.102Z,18.38
2023-05-07T10:37:42.419Z,17.38
2023-05-07T10:38:44.337Z,16.65
2023-05-07T10:39:46.438Z,14.43
2023-05-07T10:40:48.642Z,17.10
2023-05-07T10:41:50.900Z,16.67
2023-05-07T10:43:08.564Z,17.10
2023-05-07T10:44:12.391Z,19.25
2023-05-07T10:45:15.118Z,15.25
2023-05-07T10:46:23.027Z,18.70
2023-05-07T10:47:24.770Z,18.15
2023-05-07T10:48:29.623Z,16.98
2023-05-07T10:49:32.122Z,18.30
2023-05-07T10:50:33.871Z,19.25
2023-05-07T10:51:36.444Z,16.10
2023-05-07T10:52:38.068Z,16.85
2023-05-07T10:53:39.644Z,15.18
2023-05-07T10:54:41.309Z,16.33
2023-05-07T10:55:43.058Z,18.27
2023-05-07T10:56:44.812Z,19.50
2023-05-07T10:57:46.521Z,16.75
2023-05-07T10:58:48.142Z,20.50
2023-05-07T10:59:50.016Z,19.48
2023-05-07T11:00:52.617Z,17.95
2023-05-07T11:01:56.303Z,15.80
2023-05-07T11:03:03.768Z,17.85
2023-05-07T11:04:19.202Z,19.85
2023-05-07T11:05:24.573Z,17.45
2023-05-07T11:06:26.619Z,17.85
2023-05-07T11:07:29.687Z,18.23
2023-05-07T11:08:53.294Z,21.58
2023-05-07T11:09:56.784Z,19.63
2023-05-07T11:10:59.406Z,20.70
2023-05-07T11:12:01.328Z,23.42
2023-05-07T11:13:03.116Z,17.75
2023-05-07T11:14:04.813Z,21.30
2023-05-07T11:15:08.705Z,18.45
2023-05-07T11:16:21.125Z,23.92
2023-05-07T11:17:22.910Z,17.33
2023-05-07T11:18:24.623Z,20.58
2023-05-07T11:19:57.236Z,18.08
2023-05-07T11:21:00.495Z,18.52
2023-05-07T11:22:02.160Z,20.42
2023-05-07T11:23:03.796Z,21.00
2023-05-07T11:24:06.834Z,21.30
2023-05-07T11:25:08.452Z,20.88
2023-05-07T11:26:12.199Z,16.48
2023-05-07T11:27:14.379Z,21.20
2023-05-07T11:28:16.351Z,17.98
2023-05-07T11:29:23.368Z,18.10
2023-05-07T11:30:25.322Z,18.45
2023-05-07T11:31:29.702Z,17.95
2023-05-07T11:32:33.151Z,20.60
2023-05-07T11:33:35.646Z,21.02
2023-05-07T11:34:37.639Z,17.55
2023-05-07T11:35:39.465Z,19.23
2023-05-07T11:36:45.033Z,17.83
2023-05-07T11:37:48.016Z,18.77
2023-05-07T11:38:49.854Z,23.83
2023-05-07T11:39:59.100Z,16.80
2023-05-07T11:41:01.693Z,21.42
2023-05-07T11:42:03.550Z,23.52
2023-05-07T11:43:14.376Z,18.77
2023-05-07T11:44:15.976Z,18.13
2023-05-07T11:45:26.294Z,18.37
2023-05-07T11:46:28.851Z,18.33
2023-05-07T11:47:34.762Z,18.53
2023-05-07T11:48:37.172Z,16.00
2023-05-07T11:49:38.872Z,18.50
2023-05-07T11:50:54.486Z,18.70
2023-05-07T11:51:57.159Z,20.57
2023-05-07T11:52:58.766Z,16.73
2023-05-07T11:54:00.615Z,18.27
2023-05-07T11:55:04.538Z,17.40
2023-05-07T11:56:09.782Z,20.43
2023-05-07T11:57:16.126Z,17.77
2023-05-07T11:58:23.645Z,15.93
2023-05-07T11:59:25.306Z,21.17
2023-05-07T12:00:26.967Z,17.87
2023-05-07T12:01:28.530Z,17.73
2023-05-07T12:02:30.235Z,18.07
2023-05-07T12:03:35.579Z,18.93
2023-05-07T12:04:39.523Z,17.17
2023-05-07T12:05:42.852Z,18.37
2023-05-07T12:06:44.590Z,16.50
2023-05-07T12:07:46.297Z,18.33
2023-05-07T12:08:48.569Z,16.93
2023-05-07T12:09:51.277Z,15.60
2023-05-07T12:10:53.305Z,19.47
2023-05-07T12:11:57.022Z,18.13
2023-05-07T12:12:58.646Z,19.17
2023-05-07T12:14:01.597Z,18.13
2023-05-07T12:15:04.271Z,18.50
2023-05-07T12:16:07.402Z,17.07
2023-05-07T12:17:14.475Z,20.23
2023-05-07T12:18:16.370Z,18.23
2023-05-07T12:19:18.083Z,16.60
2023-05-07T12:20:20.060Z,19.57
2023-05-07T12:21:22.684Z,18.37
2023-05-07T12:22:24.402Z,18.97
2023-05-07T12:23:26.313Z,19.50
2023-05-07T12:24:29.279Z,18.50
2023-05-07T12:25:36.919Z,15.90
2023-05-07T12:26:41.601Z,16.73
2023-05-07T12:27:43.300Z,17.50
2023-05-07T12:28:44.908Z,16.40
2023-05-07T12:29:50.286Z,19.10
2023-05-07T12:30:53.112Z,16.83
2023-05-07T12:31:54.784Z,19.93
2023-05-07T12:32:56.486Z,16.57
2023-05-07T12:33:58.118Z,16.97
2023-05-07T12:34:59.720Z,17.60
2023-05-07T12:36:06.597Z,15.37
2023-05-07T12:37:08.242Z,17.67
2023-05-07T12:38:12.266Z,16.30
2023-05-07T12:39:13.918Z,15.43
2023-05-07T12:40:15.848Z,16.53
2023-05-07T12:41:17.499Z,16.17
2023-05-07T12:42:27.167Z,16.50
2023-05-07T12:43:30.187Z,17.30
2023-05-07T12:44:35.783Z,14.83
2023-05-07T12:45:42.564Z,16.67
2023-05-07T12:46:44.271Z,15.03
2023-05-07T12:47:46.917Z,14.97
2023-05-07T12:48:49.268Z,15.87
2023-05-07T12:49:51.002Z,15.73
2023-05-07T12:50:57.063Z,15.30
2023-05-07T12:51:59.717Z,15.77
2023-05-07T12:53:01.550Z,14.73
2023-05-07T12:54:03.587Z,15.70
2023-05-07T12:55:09.661Z,14.73
2023-05-07T12:56:11.574Z,18.47
2023-05-07T12:57:13.215Z,15.83
2023-05-07T12:58:21.311Z,16.40
2023-05-07T12:59:38.126Z,16.10
2023-05-07T13:00:39.914Z,20.40
2023-05-07T13:01:44.867Z,16.80
2023-05-07T13:02:46.909Z,14.07
2023-05-07T13:03:51.303Z,15.23
2023-05-07T13:04:54.026Z,15.80
2023-05-07T13:05:59.178Z,13.47
2023-05-07T13:07:01.636Z,15.70
2023-05-07T13:08:03.264Z,14.50
2023-05-07T13:09:05.827Z,15.03
2023-05-07T13:10:08.135Z,15.67
2023-05-07T13:11:11.048Z,15.63
2023-05-07T13:12:12.656Z,13.00
2023-05-07T13:13:14.210Z,16.73
2023-05-07T13:14:16.349Z,14.80
2023-05-07T13:15:18.768Z,12.10
2023-05-07T13:16:22.322Z,17.07
2023-05-07T13:17:24.321Z,12.97
2023-05-07T13:18:27.328Z,13.60
2023-05-07T13:19:31.003Z,13.87
2023-05-07T13:20:33.201Z,14.07
2023-05-07T13:21:34.917Z,14.10
2023-05-07T13:22:37.194Z,19.93
2023-05-07T13:23:39.530Z,13.17
2023-05-07T13:24:42.689Z,13.43
2023-05-07T13:25:44.442Z,13.87
2023-05-07T13:26:46.375Z,12.67
2023-05-07T13:27:53.892Z,14.13
2023-05-07T13:29:01.350Z,13.17